createdAt,value
2022-08-27T00:02:09.832Z,16.77
2022-08-27T00:04:39.277Z,16.84
2022-08-27T00:07:08.445Z,16.91
2022-08-27T00:09:37.726Z,16.84
2022-08-27T00:12:08.448Z,16.74
2022-08-27T00:14:38.602Z,16.67
2022-08-27T00:17:07.816Z,16.66
2022-08-27T00:19:36.749Z,16.65
2022-08-27T00:22:06.469Z,16.65
2022-08-27T00:24:36.139Z,16.64
2022-08-27T00:27:17.283Z,16.73
2022-08-27T00:29:47.112Z,16.75
2022-08-27T00:32:16.178Z,16.78
2022-08-27T00:34:44.222Z,16.86
2022-08-27T00:37:12.130Z,16.92
2022-08-27T00:39:39.901Z,16.97
2022-08-27T00:42:08.312Z,16.90
2022-08-27T00:44:36.450Z,16.81
2022-08-27T00:47:13.059Z,16.78
2022-08-27T00:49:57.282Z,16.83
2022-08-27T00:52:32.354Z,16.93
2022-08-27T00:55:14.907Z,16.83
2022-08-27T00:57:47.999Z,16.68
2022-08-27T01:00:18.723Z,16.66
2022-08-27T01:02:47.659Z,16.63
2022-08-27T01:05:25.372Z,16.60
2022-08-27T01:07:59.404Z,16.66
2022-08-27T01:10:30.381Z,16.62
2022-08-27T01:12:58.634Z,16.61
2022-08-27T01:15:29.013Z,16.58
2022-08-27T01:17:58.602Z,16.54
2022-08-27T01:20:34.932Z,16.56
2022-08-27T01:23:55.322Z,16.49
2022-08-27T01:26:23.505Z,16.42
2022-08-27T01:28:53.104Z,16.41
2022-08-27T01:31:20.939Z,16.29
2022-08-27T01:34:03.682Z,16.25
2022-08-27T01:36:32.135Z,16.19
2022-08-27T01:39:00.693Z,16.09
2022-08-27T01:41:28.480Z,16.08
2022-08-27T01:43:56.765Z,16.04
2022-08-27T01:46:28.594Z,16.01
2022-08-27T01:48:56.415Z,16.01
2022-08-27T01:51:24.242Z,15.99
2022-08-27T01:53:51.935Z,16.01
2022-08-27T01:56:19.857Z,15.99
2022-08-27T01:58:47.560Z,16.00
2022-08-27T02:01:19.473Z,15.94
2022-08-27T02:03:48.392Z,16.00
2022-08-27T02:06:16.222Z,16.10
2022-08-27T02:08:43.986Z,16.14
2022-08-27T02:11:12.351Z,16.14
2022-08-27T02:13:40.273Z,16.14
2022-08-27T02:16:09.031Z,16.17
2022-08-27T02:18:38.411Z,16.20
2022-08-27T02:21:10.386Z,16.26
2022-08-27T02:23:38.352Z,16.29
2022-08-27T02:26:06.354Z,16.38
2022-08-27T02:28:35.871Z,16.40
2022-08-27T02:31:05.022Z,16.44
2022-08-27T02:33:35.001Z,16.53
2022-08-27T02:36:03.770Z,16.54
2022-08-27T02:38:34.173Z,16.54
2022-08-27T02:41:01.915Z,16.51
2022-08-27T02:43:29.765Z,16.51
2022-08-27T02:45:57.482Z,16.53
2022-08-27T02:48:25.541Z,16.46
2022-08-27T02:50:54.737Z,16.37
2022-08-27T02:53:22.397Z,16.32
2022-08-27T02:55:52.237Z,16.22
2022-08-27T02:58:19.914Z,16.15
2022-08-27T03:00:48.303Z,16.13
2022-08-27T03:03:16.547Z,16.11
2022-08-27T03:05:45.291Z,16.09
2022-08-27T03:08:13.122Z,16.01
2022-08-27T03:10:41.893Z,15.98
2022-08-27T03:13:09.680Z,15.95
2022-08-27T03:15:37.467Z,15.96
2022-08-27T03:18:21.552Z,15.93
2022-08-27T03:20:55.964Z,15.87
2022-08-27T03:23:32.845Z,15.86
2022-08-27T03:26:09.967Z,15.83
2022-08-27T03:28:38.038Z,15.84
2022-08-27T03:31:15.875Z,15.87
2022-08-27T03:33:43.577Z,15.85
2022-08-27T03:36:14.129Z,15.87
2022-08-27T03:38:41.873Z,15.80
2022-08-27T03:41:09.935Z,15.74
2022-08-27T03:43:37.632Z,15.67
2022-08-27T03:46:08.606Z,15.63
2022-08-27T03:48:36.645Z,15.62
2022-08-27T03:51:09.748Z,15.60
2022-08-27T03:53:40.549Z,15.50
2022-08-27T03:56:09.121Z,15.40
2022-08-27T03:58:38.991Z,15.40
2022-08-27T04:01:08.472Z,15.39
2022-08-27T04:03:37.413Z,15.33
2022-08-27T04:06:05.504Z,15.24
2022-08-27T04:08:33.326Z,15.18
2022-08-27T04:11:05.894Z,15.20
2022-08-27T04:13:33.721Z,15.19
2022-08-27T04:16:02.061Z,15.15
2022-08-27T04:18:29.799Z,15.13
2022-08-27T04:20:57.905Z,15.11
2022-08-27T04:23:25.624Z,15.12
2022-08-27T04:25:53.312Z,15.12
2022-08-27T04:28:21.312Z,15.08
2022-08-27T04:30:49.250Z,15.02
2022-08-27T04:33:17.369Z,15.05
2022-08-27T04:35:45.082Z,15.07
2022-08-27T04:38:12.990Z,15.07
2022-08-27T04:40:59.170Z,15.06
2022-08-27T04:43:28.251Z,15.00
2022-08-27T04:45:56.563Z,15.00
2022-08-27T04:48:25.721Z,15.02
2022-08-27T04:50:53.663Z,14.98
2022-08-27T04:53:22.113Z,14.92
2022-08-27T04:55:55.933Z,14.88
2022-08-27T04:58:26.335Z,14.79
2022-08-27T05:01:01.611Z,14.77
2022-08-27T05:03:29.416Z,14.80
2022-08-27T05:06:04.802Z,14.76
2022-08-27T05:08:34.025Z,14.73
2022-08-27T05:11:02.365Z,14.75
2022-08-27T05:13:30.351Z,14.74
2022-08-27T05:16:08.339Z,14.71
2022-08-27T05:18:47.693Z,14.68
2022-08-27T05:21:34.094Z,14.64
2022-08-27T05:24:04.237Z,14.56
2022-08-27T05:26:34.949Z,14.54
2022-08-27T05:29:06.308Z,14.54
2022-08-27T05:31:34.988Z,14.57
2022-08-27T05:34:10.744Z,14.59
2022-08-27T05:36:47.835Z,14.60
2022-08-27T05:39:17.808Z,14.65
2022-08-27T05:41:45.674Z,14.69
2022-08-27T05:47:03.654Z,14.82
2022-08-27T05:49:31.799Z,14.89
2022-08-27T05:51:59.542Z,14.88
2022-08-27T05:54:27.287Z,14.93
2022-08-27T05:56:55.180Z,14.97
2022-08-27T05:59:45.994Z,14.96
2022-08-27T06:02:13.798Z,14.98
2022-08-27T06:04:41.682Z,15.04
2022-08-27T06:07:10.593Z,15.16
2022-08-27T06:09:39.247Z,15.25
2022-08-27T06:12:08.021Z,15.29
2022-08-27T06:14:37.337Z,15.35
2022-08-27T06:17:06.409Z,15.38
2022-08-27T06:19:36.281Z,15.45
2022-08-27T06:22:10.057Z,15.56
2022-08-27T06:24:41.870Z,15.62
2022-08-27T06:27:14.003Z,15.61
2022-08-27T06:29:43.329Z,15.63
2022-08-27T06:32:13.125Z,15.64
2022-08-27T06:34:41.051Z,15.73
2022-08-27T06:37:09.290Z,15.79
2022-08-27T06:39:39.721Z,15.81
2022-08-27T06:42:11.963Z,15.93
2022-08-27T06:44:42.071Z,16.02
2022-08-27T06:47:10.199Z,16.17
2022-08-27T06:49:41.308Z,16.26
2022-08-27T06:52:11.610Z,16.39
2022-08-27T06:54:40.266Z,16.49
2022-08-27T06:57:08.040Z,16.55
2022-08-27T06:59:35.985Z,16.60
2022-08-27T07:02:04.218Z,16.68
2022-08-27T07:04:33.022Z,16.70
2022-08-27T07:07:02.706Z,16.70
2022-08-27T07:09:34.400Z,16.78
2022-08-27T07:12:02.469Z,16.86
2022-08-27T07:14:35.677Z,16.90
2022-08-27T07:17:11.189Z,16.89
2022-08-27T07:19:44.355Z,16.97
2022-08-27T07:22:13.074Z,17.09
2022-08-27T07:24:41.093Z,17.17
2022-08-27T07:27:09.610Z,17.21
2022-08-27T07:29:37.408Z,17.25
2022-08-27T07:32:05.473Z,17.30
2022-08-27T07:34:33.153Z,17.39
2022-08-27T07:37:00.847Z,17.52
2022-08-27T07:39:28.589Z,17.58
2022-08-27T07:42:16.621Z,17.61
2022-08-27T07:44:44.471Z,17.67
2022-08-27T07:47:12.297Z,17.76
2022-08-27T07:49:41.096Z,17.90
2022-08-27T07:52:08.825Z,17.99
2022-08-27T07:54:36.596Z,18.07
2022-08-27T07:57:04.875Z,18.17
2022-08-27T07:59:33.087Z,18.22
2022-08-27T08:02:01.082Z,18.32
2022-08-27T08:04:29.021Z,18.42
2022-08-27T08:06:56.854Z,18.53
2022-08-27T08:09:24.984Z,18.58
2022-08-27T08:11:54.050Z,18.66
2022-08-27T08:14:22.473Z,18.74
2022-08-27T08:16:50.630Z,18.81
2022-08-27T08:19:18.422Z,18.89
2022-08-27T08:21:46.093Z,18.96
2022-08-27T08:24:13.774Z,19.03
2022-08-27T08:26:42.041Z,19.14
2022-08-27T08:29:16.662Z,19.27
2022-08-27T08:31:50.243Z,19.44
2022-08-27T08:34:19.983Z,19.58
2022-08-27T08:36:53.982Z,19.63
2022-08-27T08:39:24.160Z,19.67
2022-08-27T08:41:57.286Z,19.75
2022-08-27T08:44:41.295Z,19.83
2022-08-27T08:47:50.589Z,19.92
2022-08-27T08:50:30.592Z,19.98
2022-08-27T08:53:11.638Z,19.97
2022-08-27T08:55:48.790Z,19.94
2022-08-27T08:58:40.610Z,19.98
2022-08-27T09:01:10.210Z,20.02
2022-08-27T09:03:42.137Z,20.11
2022-08-27T09:06:27.714Z,20.22
2022-08-27T09:08:56.148Z,20.34
2022-08-27T09:11:51.711Z,20.43
2022-08-27T09:14:32.233Z,20.45
2022-08-27T09:17:02.577Z,20.49
2022-08-27T09:19:37.151Z,20.55
2022-08-27T09:22:38.331Z,20.56
2022-08-27T09:25:25.524Z,20.65
2022-08-27T09:27:57.545Z,20.74
2022-08-27T09:30:32.059Z,20.74
2022-08-27T09:33:04.394Z,20.78
2022-08-27T09:35:42.234Z,20.86
2022-08-27T09:38:10.839Z,20.91
2022-08-27T09:40:47.073Z,20.88
2022-08-27T09:43:17.446Z,20.92
2022-08-27T09:45:59.678Z,20.95
2022-08-27T09:48:32.489Z,21.00
2022-08-27T09:51:21.742Z,21.06
2022-08-27T09:53:57.468Z,21.03
2022-08-27T09:56:39.160Z,20.97
2022-08-27T09:59:24.655Z,21.00
2022-08-27T10:02:04.288Z,21.07
2022-08-27T10:04:51.398Z,21.11
2022-08-27T10:07:53.805Z,21.18
2022-08-27T10:10:38.475Z,21.26
2022-08-27T10:13:20.379Z,21.31
2022-08-27T10:16:09.762Z,21.35
2022-08-27T10:18:56.717Z,21.38
2022-08-27T10:21:45.792Z,21.47
2022-08-27T10:25:17.045Z,21.61
2022-08-27T10:27:59.500Z,21.79
2022-08-27T10:31:00.529Z,21.89
2022-08-27T10:34:22.217Z,22.05
2022-08-27T10:37:16.055Z,22.18
2022-08-27T10:40:03.508Z,22.37
2022-08-27T10:43:17.070Z,22.55
2022-08-27T10:46:04.157Z,22.69
2022-08-27T10:48:53.974Z,22.92
2022-08-27T10:51:53.698Z,23.16
2022-08-27T10:54:31.900Z,23.35
2022-08-27T10:57:40.255Z,23.43
2022-08-27T11:00:21.199Z,23.39
2022-08-27T11:02:58.618Z,23.39
2022-08-27T11:05:36.972Z,23.45
2022-08-27T11:08:19.738Z,23.58
2022-08-27T11:10:53.566Z,23.74
2022-08-27T11:13:33.777Z,23.82
2022-08-27T11:16:10.703Z,23.96
2022-08-27T11:19:02.689Z,24.19
2022-08-27T11:22:07.114Z,24.35
2022-08-27T11:24:59.750Z,24.45
2022-08-27T11:27:32.808Z,24.58
2022-08-27T11:30:29.227Z,24.57
2022-08-27T11:33:21.134Z,24.48
2022-08-27T11:36:32.005Z,24.29
2022-08-27T11:39:33.737Z,24.33
2022-08-27T11:42:14.073Z,24.42
2022-08-27T11:44:50.771Z,24.41
2022-08-27T11:47:26.245Z,24.39
2022-08-27T11:50:01.386Z,24.24
2022-08-27T11:52:41.803Z,24.01
2022-08-27T11:55:21.654Z,23.67
2022-08-27T11:58:09.454Z,23.43
2022-08-27T12:00:42.097Z,23.18
2022-08-27T12:03:19.016Z,23.05
2022-08-27T12:05:54.140Z,23.04
2022-08-27T12:08:21.837Z,23.23
2022-08-27T12:11:27.484Z,23.60
2022-08-27T12:14:32.281Z,24.05
2022-08-27T12:17:08.228Z,24.58
2022-08-27T12:19:57.030Z,24.91
2022-08-27T12:23:09.576Z,24.92
2022-08-27T12:25:37.323Z,25.03
2022-08-27T12:28:09.288Z,25.38
2022-08-27T12:30:41.387Z,25.51
2022-08-27T12:33:26.523Z,25.55
2022-08-27T12:35:58.013Z,25.55
2022-08-27T12:38:31.931Z,25.36
2022-08-27T12:41:04.052Z,25.14
2022-08-27T12:43:35.538Z,24.92
2022-08-27T12:46:06.676Z,24.83
2022-08-27T12:48:41.873Z,24.96
2022-08-27T12:51:31.246Z,24.97
2022-08-27T12:54:13.176Z,24.94
2022-08-27T12:56:58.889Z,24.85
2022-08-27T13:00:00.052Z,24.72
2022-08-27T13:02:27.650Z,24.44
2022-08-27T13:04:55.847Z,24.34
2022-08-27T13:07:38.293Z,24.26
2022-08-27T13:10:18.409Z,24.23
2022-08-27T13:12:48.977Z,24.08
2022-08-27T13:15:19.974Z,23.99
2022-08-27T13:17:49.457Z,24.08
2022-08-27T13:20:24.587Z,24.26
2022-08-27T13:22:54.252Z,24.43
2022-08-27T13:25:36.772Z,24.57
2022-08-27T13:28:13.250Z,24.70
2022-08-27T13:30:45.968Z,24.75
2022-08-27T13:33:22.169Z,24.73
2022-08-27T13:35:51.228Z,24.62
2022-08-27T13:38:22.524Z,24.66
2022-08-27T13:40:57.980Z,24.78
2022-08-27T13:43:43.529Z,24.91
2022-08-27T13:46:21.478Z,25.04
2022-08-27T13:48:54.882Z,25.06
2022-08-27T13:51:33.351Z,25.07
2022-08-27T13:54:12.943Z,25.07
2022-08-27T13:56:48.974Z,25.12
2022-08-27T13:59:20.036Z,25.16
2022-08-27T14:02:31.867Z,25.15
2022-08-27T14:05:28.067Z,25.20
2022-08-27T14:08:13.325Z,25.12
2022-08-27T14:10:47.697Z,25.17
2022-08-27T14:13:23.670Z,25.28
2022-08-27T14:16:00.257Z,25.32
2022-08-27T14:18:57.415Z,25.33
2022-08-27T14:21:22.702Z,25.22
2022-08-27T14:23:52.359Z,25.01
2022-08-27T14:26:20.377Z,24.72
2022-08-27T14:28:48.429Z,24.54
2022-08-27T14:31:16.582Z,24.54
2022-08-27T14:33:47.417Z,24.57
2022-08-27T14:36:16.313Z,24.62
2022-08-27T14:38:48.085Z,24.77
2022-08-27T14:41:17.194Z,24.83
2022-08-27T14:43:49.757Z,24.84
2022-08-27T14:46:30.070Z,24.99
2022-08-27T14:49:00.950Z,25.13
2022-08-27T14:51:32.159Z,25.17
2022-08-27T14:53:59.828Z,25.21
2022-08-27T14:56:27.578Z,25.09
2022-08-27T14:58:55.630Z,25.11
2022-08-27T15:01:26.131Z,25.11
2022-08-27T15:03:54.850Z,25.05
2022-08-27T15:06:23.994Z,24.93
2022-08-27T15:08:52.253Z,24.83
2022-08-27T15:11:28.051Z,24.78
2022-08-27T15:13:58.135Z,24.65
2022-08-27T15:16:31.361Z,24.67
2022-08-27T15:19:01.433Z,24.89
2022-08-27T15:21:31.073Z,25.17
2022-08-27T15:24:03.425Z,25.45
2022-08-27T15:26:31.627Z,25.68
2022-08-27T15:29:04.095Z,25.84
2022-08-27T15:31:34.886Z,25.91
2022-08-27T15:34:03.145Z,25.83
2022-08-27T15:36:30.850Z,25.73
2022-08-27T15:38:58.561Z,25.49
2022-08-27T15:41:29.286Z,25.20
2022-08-27T15:43:57.903Z,24.96
2022-08-27T15:46:26.563Z,24.75
2022-08-27T15:48:54.331Z,24.75
2022-08-27T15:51:29.067Z,24.86
2022-08-27T15:53:58.195Z,24.99
2022-08-27T15:56:29.456Z,25.09
2022-08-27T15:59:00.308Z,25.14
2022-08-27T16:01:35.843Z,25.16
2022-08-27T16:04:06.100Z,25.10
2022-08-27T16:06:34.969Z,24.92
2022-08-27T16:09:04.769Z,24.82
2022-08-27T16:11:32.641Z,24.78
2022-08-27T16:14:01.349Z,24.85
2022-08-27T16:16:32.408Z,24.91
2022-08-27T16:19:02.882Z,24.90
2022-08-27T16:21:31.102Z,24.88
2022-08-27T16:23:58.789Z,24.84
2022-08-27T16:26:26.501Z,24.78
2022-08-27T16:28:54.473Z,24.74
2022-08-27T16:31:22.252Z,24.80
2022-08-27T16:33:50.186Z,24.84
2022-08-27T16:36:18.482Z,24.82
2022-08-27T16:38:46.278Z,24.74
2022-08-27T16:41:14.265Z,24.77
2022-08-27T16:43:43.302Z,24.81
2022-08-27T16:46:11.098Z,24.80
2022-08-27T16:49:01.208Z,24.82
2022-08-27T16:51:34.522Z,24.83
2022-08-27T16:54:06.189Z,24.84
2022-08-27T16:56:37.770Z,24.85
2022-08-27T16:59:07.553Z,24.83
2022-08-27T17:01:35.399Z,24.69
2022-08-27T17:04:10.493Z,24.57
2022-08-27T17:06:44.709Z,24.45
2022-08-27T17:09:13.955Z,24.45
2022-08-27T17:11:43.532Z,24.48
2022-08-27T17:14:12.238Z,24.48
2022-08-27T17:16:41.593Z,24.38
2022-08-27T17:19:16.825Z,24.25
2022-08-27T17:21:46.051Z,24.14
2022-08-27T17:24:13.958Z,24.01
2022-08-27T17:26:41.674Z,23.95
2022-08-27T17:29:09.689Z,23.88
2022-08-27T17:31:41.629Z,23.79
2022-08-27T17:34:21.538Z,23.74
2022-08-27T17:36:51.928Z,23.72
2022-08-27T17:39:20.791Z,23.69
2022-08-27T17:41:52.626Z,23.59
2022-08-27T17:44:31.706Z,23.49
2022-08-27T17:47:05.825Z,23.41
2022-08-27T17:49:34.507Z,23.34
2022-08-27T17:52:09.634Z,23.31
2022-08-27T17:54:37.235Z,23.27
2022-08-27T17:57:16.401Z,23.20
2022-08-27T17:59:45.151Z,23.18
2022-08-27T18:02:22.132Z,23.12
2022-08-27T18:04:50.781Z,23.00
2022-08-27T18:07:19.423Z,22.94
2022-08-27T18:09:49.029Z,22.83
2022-08-27T18:12:21.692Z,22.74
2022-08-27T18:15:02.102Z,22.61
2022-08-27T18:17:30.215Z,22.49
2022-08-27T18:19:59.390Z,22.39
2022-08-27T18:22:27.900Z,22.28
2022-08-27T18:25:02.892Z,22.16
2022-08-27T18:27:34.019Z,22.09
2022-08-27T18:30:02.840Z,22.00
2022-08-27T18:32:31.078Z,21.87
2022-08-27T18:35:14.977Z,21.73
2022-08-27T18:37:42.676Z,21.61
2022-08-27T18:40:12.842Z,21.52
2022-08-27T18:42:41.209Z,21.43
2022-08-27T18:45:16.642Z,21.34
2022-08-27T18:47:45.279Z,21.20
2022-08-27T18:50:17.518Z,21.10
2022-08-27T18:52:49.974Z,20.98
2022-08-27T18:55:24.705Z,20.87
2022-08-27T18:57:52.491Z,20.76
2022-08-27T19:00:21.137Z,20.65
2022-08-27T19:02:53.476Z,20.53
2022-08-27T19:05:26.921Z,20.42
2022-08-27T19:07:58.175Z,20.31
2022-08-27T19:10:26.942Z,20.27
2022-08-27T19:12:55.030Z,20.22
2022-08-27T19:15:23.047Z,20.15
2022-08-27T19:17:57.371Z,20.11
2022-08-27T19:20:27.412Z,20.06
2022-08-27T19:22:55.813Z,19.98
2022-08-27T19:25:23.543Z,19.90
2022-08-27T19:27:52.693Z,19.85
2022-08-27T19:30:20.711Z,19.73
2022-08-27T19:32:48.416Z,19.61
2022-08-27T19:35:22.782Z,19.47
2022-08-27T19:37:53.261Z,19.40
2022-08-27T19:40:22.911Z,19.35
2022-08-27T19:42:51.118Z,19.29
2022-08-27T19:45:23.109Z,19.26
2022-08-27T19:47:53.040Z,19.16
2022-08-27T19:50:23.588Z,19.12
2022-08-27T19:52:52.399Z,19.06
2022-08-27T19:55:20.816Z,19.02
2022-08-27T19:57:49.914Z,19.00
2022-08-27T20:00:22.239Z,18.94
2022-08-27T20:02:50.755Z,18.92
2022-08-27T20:05:21.178Z,18.83
2022-08-27T20:07:52.752Z,18.76
2022-08-27T20:10:23.336Z,18.73
2022-08-27T20:13:00.818Z,18.66
2022-08-27T20:15:28.533Z,18.59
2022-08-27T20:17:59.197Z,18.55
2022-08-27T20:20:28.606Z,18.49
2022-08-27T20:22:57.234Z,18.44
2022-08-27T20:25:26.363Z,18.44
2022-08-27T20:27:54.616Z,18.35
2022-08-27T20:30:27.884Z,18.30
2022-08-27T20:32:57.183Z,18.28
2022-08-27T20:35:27.550Z,18.22
2022-08-27T20:37:55.370Z,18.21
2022-08-27T20:40:33.193Z,18.16
2022-08-27T20:43:01.910Z,18.16
2022-08-27T20:45:32.302Z,18.13
2022-08-27T20:48:00.860Z,18.04
2022-08-27T20:50:32.173Z,17.98
2022-08-27T20:53:00.738Z,17.95
2022-08-27T20:55:30.008Z,17.93
2022-08-27T20:58:16.160Z,17.88
2022-08-27T21:00:43.937Z,17.86
2022-08-27T21:03:15.003Z,17.81
2022-08-27T21:05:46.997Z,17.74
2022-08-27T21:08:18.653Z,17.67
2022-08-27T21:10:54.955Z,17.66
2022-08-27T21:13:24.794Z,17.62
2022-08-27T21:15:54.603Z,17.57
2022-08-27T21:18:29.952Z,17.52
2022-08-27T21:21:04.736Z,17.52
2022-08-27T21:23:35.446Z,17.53
2022-08-27T21:26:10.045Z,17.48
2022-08-27T21:28:41.578Z,17.47
2022-08-27T21:31:10.142Z,17.44
2022-08-27T21:33:39.667Z,17.42
2022-08-27T21:36:11.834Z,17.40
2022-08-27T21:38:40.710Z,17.37
2022-08-27T21:41:09.057Z,17.33
2022-08-27T21:43:37.425Z,17.28
2022-08-27T21:46:05.870Z,17.25
2022-08-27T21:48:34.026Z,17.22
2022-08-27T21:51:12.104Z,17.17
2022-08-27T21:53:41.026Z,17.11
2022-08-27T21:56:12.112Z,17.08
2022-08-27T21:58:40.722Z,17.06
2022-08-27T22:01:08.687Z,17.03
2022-08-27T22:03:36.854Z,17.00
2022-08-27T22:06:07.212Z,17.00
2022-08-27T22:08:35.175Z,17.00
2022-08-27T22:11:03.065Z,16.93
2022-08-27T22:13:32.693Z,16.84
2022-08-27T22:16:00.623Z,16.74
2022-08-27T22:18:28.813Z,16.67
2022-08-27T22:20:58.818Z,16.63
2022-08-27T22:23:27.524Z,16.58
2022-08-27T22:25:55.346Z,16.56
2022-08-27T22:28:23.462Z,16.53
2022-08-27T22:30:51.310Z,16.49
2022-08-27T22:33:19.068Z,16.48
2022-08-27T22:35:47.723Z,16.52
2022-08-27T22:38:15.669Z,16.45
2022-08-27T22:40:43.921Z,16.42
2022-08-27T22:43:12.534Z,16.33
2022-08-27T22:45:40.299Z,16.25
2022-08-27T22:48:08.256Z,16.16
2022-08-27T22:50:36.081Z,16.11
2022-08-27T22:53:04.292Z,15.98
2022-08-27T22:55:31.992Z,15.94
2022-08-27T22:58:02.047Z,15.95
2022-08-27T23:00:35.437Z,15.91
2022-08-27T23:03:07.135Z,15.88
2022-08-27T23:05:41.753Z,15.88
2022-08-27T23:08:14.103Z,15.91
2022-08-27T23:10:43.495Z,15.91
2022-08-27T23:13:13.298Z,15.84
2022-08-27T23:15:42.123Z,15.78
2022-08-27T23:18:10.377Z,15.77
2022-08-27T23:20:38.174Z,15.75
2022-08-27T23:23:07.967Z,15.72
2022-08-27T23:25:54.880Z,15.62
2022-08-27T23:28:23.490Z,15.61
2022-08-27T23:30:51.904Z,15.52
2022-08-27T23:33:20.077Z,15.44
2022-08-27T23:35:51.317Z,15.44
2022-08-27T23:38:20.139Z,15.46
2022-08-27T23:40:50.353Z,15.55
2022-08-27T23:43:18.440Z,15.51
2022-08-27T23:45:46.292Z,15.43
2022-08-27T23:48:14.293Z,15.38
2022-08-27T23:50:42.851Z,15.36
2022-08-27T23:53:11.838Z,15.34
2022-08-27T23:55:40.950Z,15.33
2022-08-27T23:58:09.897Z,15.33
